Time;durP1;ratioP1;P1;durP2;ratioP2;P2;SDS_P1;SDS_P2;PMS_P1;PMS_P2;Temp;Humidity;BMP_temperature;BMP_pressure;BME280_temperature;BME280_humidity;BME280_pressure;Samples;Min_cycle;Max_cycle;Signal;HPM_P1;HPM_P2
2024/03/09 00:00:04;;;;;;;;;;;;;;;6.33;100.00;99224.16;5030403;28;19956;-78
2024/03/09 00:02:30;;;;;;;;;;;;;;;6.26;100.00;99229.66;5030987;28;20425;-79
2024/03/09 00:04:55;;;;;;;;;;;;;;;6.34;100.00;99230.41;5021121;28;19924;-79
2024/03/09 00:07:21;;;;;;;;;;;;;;;6.25;100.00;99235.53;5033083;28;19921;-79
2024/03/09 00:09:46;;;;;;;;;;;;;;;6.28;100.00;99223.75;5043169;28;19932;-78
2024/03/09 00:12:14;;;;;;;;;;;;;;;6.25;100.00;99230.84;5013794;28;19913;-78
2024/03/09 00:14:40;;;;;;;;;;;;;;;6.33;100.00;99226.88;5030241;28;19945;-78
2024/03/09 00:17:06;;;;;;;;;;;;;;;6.35;100.00;99230.03;5030383;28;19921;-79
2024/03/09 00:19:32;;;;;;;;;;;;;;;6.30;100.00;99221.41;5030289;28;19917;-79
2024/03/09 00:21:58;;;;;;;;;;;;;;;6.38;100.00;99226.50;5031768;28;20426;-79
2024/03/09 00:24:23;;;;;;;;;;;;;;;6.38;100.00;99222.97;5030319;28;19928;-79
2024/03/09 00:26:48;;;;;;;;;;;;;;;6.35;100.00;99224.53;5013784;28;20003;-78
2024/03/09 00:29:14;;;;;;;;;;;;;;;6.44;100.00;99226.88;5029934;28;19918;-78
2024/03/09 00:31:39;;;;;;;;;;;;;;;6.50;100.00;99226.09;5013572;28;19924;-79
2024/03/09 00:34:04;;;;;;;;;;;;;;;6.48;100.00;99228.44;5031711;28;19924;-79
2024/03/09 00:36:30;;;;;;;;;;;;;;;6.38;100.00;99225.72;5040868;28;19921;-80
2024/03/09 00:38:56;;;;;;;;;;;;;;;6.43;100.00;99234.34;5013066;28;19921;-80
2024/03/09 00:41:21;;;;;;;;;;;;;;;6.48;100.00;99231.19;5031055;28;19917;-79
2024/03/09 00:43:47;;;;;;;;;;;;;;;6.47;100.00;99231.56;5013027;28;19917;-79
2024/03/09 00:46:13;;;;;;;;;;;;;;;6.38;100.00;99229.25;5020949;28;19924;-80
2024/03/09 00:48:39;;;;;;;;;;;;;;;6.41;100.00;99233.16;5031496;28;19921;-79
2024/03/09 00:51:05;;;;;;;;;;;;;;;6.27;100.00;99228.47;5013631;28;20437;-79
2024/03/09 00:53:30;;;;;;;;;;;;;;;6.23;100.00;99227.69;5030071;28;19970;-78
2024/03/09 00:55:56;;;;;;;;;;;;;;;6.27;100.00;99222.97;5013610;28;20023;-78
2024/03/09 00:58:21;;;;;;;;;;;;;;;6.26;100.00;99232.41;5013106;28;19917;-79
2024/03/09 01:00:51;;;;;;;;;;;;;;;6.27;100.00;99227.72;5030272;28;19932;-79
2024/03/09 01:03:16;;;;;;;;;;;;;;;6.36;100.00;99228.84;5031159;28;19960;-79
2024/03/09 01:05:44;;;;;;;;;;;;;;;6.39;100.00;99228.06;5030163;28;20414;-79
2024/03/09 01:08:09;;;;;;;;;;;;;;;6.30;100.00;99227.69;5013011;28;19929;-79
2024/03/09 01:10:35;;;;;;;;;;;;;;;6.33;100.00;99221.41;5029604;28;20409;-79
2024/03/09 01:13:04;;;;;;;;;;;;;;;6.31;100.00;99223.00;5029709;28;19918;-78
2024/03/09 01:15:30;;;;;;;;;;;;;;;6.22;100.00;99219.84;5029892;28;19917;-78
2024/03/09 01:17:55;;;;;;;;;;;;;;;6.20;100.00;99217.53;5031103;28;19928;-79
2024/03/09 01:20:20;;;;;;;;;;;;;;;6.24;100.00;99221.03;5013151;28;19921;-79
2024/03/09 01:22:46;;;;;;;;;;;;;;;6.13;100.00;99223.03;5031102;28;20012;-79
2024/03/09 01:25:11;;;;;;;;;;;;;;;6.16;100.00;99216.72;5027914;28;19923;-78
2024/03/09 01:27:37;;;;;;;;;;;;;;;6.19;100.00;99218.69;5015737;28;19918;-79
2024/03/09 01:30:05;;;;;;;;;;;;;;;6.23;100.00;99213.97;5025841;28;20283;-78
2024/03/09 01:32:30;;;;;;;;;;;;;;;6.31;100.00;99221.03;5033350;28;19921;-78
2024/03/09 01:34:56;;;;;;;;;;;;;;;6.30;100.00;99219.47;5017115;28;20353;-79
2024/03/09 01:37:22;;;;;;;;;;;;;;;6.35;100.00;99221.00;5033205;28;19990;-79
2024/03/09 01:39:47;;;;;;;;;;;;;;;6.41;100.00;99213.94;5043990;28;19916;-79
2024/03/09 01:42:13;;;;;;;;;;;;;;;6.48;100.00;99220.22;5036624;28;19924;-79
2024/03/09 01:44:39;;;;;;;;;;;;;;;6.45;100.00;99215.50;5033678;28;19921;-79
2024/03/09 01:47:09;;;;;;;;;;;;;;;6.38;100.00;99218.28;5032574;28;19921;-79
2024/03/09 01:49:36;;;;;;;;;;;;;;;6.45;100.00;99217.47;5033261;28;19917;-78
2024/03/09 01:52:01;;;;;;;;;;;;;;;6.41;100.00;99214.72;5032777;28;20444;-78
2024/03/09 01:54:28;;;;;;;;;;;;;;;6.43;100.00;99208.84;5034081;28;20011;-78
2024/03/09 01:56:55;;;;;;;;;;;;;;;6.41;100.00;99211.97;5032757;28;20012;-79
2024/03/09 01:59:22;;;;;;;;;;;;;;;6.35;100.00;99202.59;5046081;28;19927;-79
2024/03/09 02:01:50;;;;;;;;;;;;;;;6.29;100.00;99201.44;5018066;28;19921;-78
2024/03/09 02:04:16;;;;;;;;;;;;;;;6.27;100.00;99201.03;5016581;28;20453;-79
2024/03/09 02:06:41;;;;;;;;;;;;;;;6.25;100.00;99203.41;5032578;28;19917;-78
2024/03/09 02:09:09;;;;;;;;;;;;;;;6.23;100.00;99205.75;5033614;28;19956;-78
2024/03/09 02:11:42;;;;;;;;;;;;;;;6.20;100.00;99201.06;5033755;28;19994;-78
2024/03/09 02:14:07;;;;;;;;;;;;;;;6.24;100.00;99201.84;5034549;28;19917;-79
2024/03/09 02:16:32;;;;;;;;;;;;;;;6.24;100.00;99207.31;5035662;28;19920;-79
2024/03/09 02:18:58;;;;;;;;;;;;;;;6.06;100.00;99201.88;5018644;28;19921;-78
2024/03/09 02:21:24;;;;;;;;;;;;;;;6.13;100.00;99210.09;5015587;28;19931;-78
2024/03/09 02:23:51;;;;;;;;;;;;;;;6.22;100.00;99204.19;5033201;28;19917;-79
2024/03/09 02:26:16;;;;;;;;;;;;;;;6.24;100.00;99206.53;5022439;28;19916;-78
2024/03/09 02:28:55;;;;;;;;;;;;;;;6.24;100.00;99204.56;5018605;28;20322;-78
2024/03/09 02:31:23;;;;;;;;;;;;;;;6.32;100.00;99200.66;5032073;28;19921;-79
2024/03/09 02:33:53;;;;;;;;;;;;;;;6.35;100.00;99194.34;5014677;28;19928;-78
2024/03/09 02:36:28;;;;;;;;;;;;;;;6.31;100.00;99204.56;5033030;28;19925;-77
2024/03/09 02:38:54;;;;;;;;;;;;;;;6.38;100.00;99198.28;5031873;28;19921;-78
2024/03/09 02:41:20;;;;;;;;;;;;;;;6.42;100.00;99196.31;5015080;28;19917;-78
2024/03/09 02:43:46;;;;;;;;;;;;;;;6.34;100.00;99194.75;5031601;28;19921;-78
2024/03/09 02:46:12;;;;;;;;;;;;;;;6.37;100.00;99194.75;5031725;28;20322;-79
2024/03/09 02:48:37;;;;;;;;;;;;;;;6.39;100.00;99192.38;5031507;28;19917;-78
2024/03/09 02:51:03;;;;;;;;;;;;;;;6.35;100.00;99193.56;5031434;28;19917;-77
2024/03/09 02:53:28;;;;;;;;;;;;;;;6.33;100.00;99199.44;5015127;28;20003;-77
2024/03/09 02:55:53;;;;;;;;;;;;;;;6.24;100.00;99196.34;5042076;28;20388;-77
2024/03/09 02:58:19;;;;;;;;;;;;;;;6.24;100.00;99203.78;5035611;28;20012;-79
2024/03/09 03:00:45;;;;;;;;;;;;;;;6.34;100.00;99194.75;5031713;28;19917;-79
2024/03/09 03:05:55;;;;;;;;;;;;;;;6.28;100.00;99191.63;5033296;28;20297;-78
2024/03/09 03:08:20;;;;;;;;;;;;;;;6.34;100.00;99195.53;5031333;28;19929;-77
2024/03/09 03:10:46;;;;;;;;;;;;;;;6.29;100.00;99187.72;5033478;28;20339;-79
2024/03/09 03:13:14;;;;;;;;;;;;;;;6.27;100.00;99192.78;5016323;28;19972;-79
2024/03/09 03:15:39;;;;;;;;;;;;;;;6.18;100.00;99181.47;5038862;28;19918;-78
2024/03/09 03:18:07;;;;;;;;;;;;;;;6.22;100.00;99201.44;5031111;28;19921;-78
2024/03/09 03:20:33;;;;;;;;;;;;;;;6.24;100.00;99196.34;5032656;28;19917;-78
2024/03/09 03:22:59;;;;;;;;;;;;;;;6.27;100.00;99194.78;5031325;28;19925;-79
2024/03/09 03:25:25;;;;;;;;;;;;;;;6.28;100.00;99201.81;5031024;28;20403;-78
2024/03/09 03:27:51;;;;;;;;;;;;;;;6.15;100.00;99198.69;5014557;28;19956;-78
2024/03/09 03:30:19;;;;;;;;;;;;;;;6.16;100.00;99192.03;5031090;28;20307;-78
2024/03/09 03:32:44;;;;;;;;;;;;;;;6.06;100.00;99198.34;5030847;28;19914;-79
2024/03/09 03:35:10;;;;;;;;;;;;;;;6.11;100.00;99197.94;5045135;28;20391;-79
2024/03/09 03:37:35;;;;;;;;;;;;;;;6.14;100.00;99197.16;5011787;28;19917;-81
2024/03/09 03:40:00;;;;;;;;;;;;;;;6.07;100.00;99192.47;5024042;28;19924;-78
2024/03/09 03:42:26;;;;;;;;;;;;;;;6.06;100.00;99190.09;5043784;28;20371;-79
2024/03/09 03:44:51;;;;;;;;;;;;;;;6.16;100.00;99208.50;5030166;28;19924;-79
2024/03/09 03:47:16;;;;;;;;;;;;;;;6.16;100.00;99205.75;5035549;28;19917;-78
2024/03/09 03:49:42;;;;;;;;;;;;;;;6.20;100.00;99206.56;5018993;28;19917;-79
2024/03/09 03:52:08;;;;;;;;;;;;;;;6.27;100.00;99205.75;5029591;28;19917;-79
2024/03/09 03:54:35;;;;;;;;;;;;;;;6.23;100.00;99197.53;5030846;28;19917;-79
2024/03/09 03:57:00;;;;;;;;;;;;;;;6.22;100.00;99193.22;5030447;28;19929;-79
2024/03/09 03:59:26;;;;;;;;;;;;;;;6.26;100.00;99194.00;5030785;28;19924;-79
2024/03/09 04:01:51;;;;;;;;;;;;;;;6.27;100.00;99183.81;5035889;28;20353;-79
2024/03/09 04:04:17;;;;;;;;;;;;;;;6.35;100.00;99190.81;5018511;28;19918;-79
2024/03/09 04:06:44;;;;;;;;;;;;;;;6.44;100.00;99193.97;5042462;28;19921;-79
2024/03/09 04:09:09;;;;;;;;;;;;;;;6.43;100.00;99189.63;5030295;28;19944;-79
2024/03/09 04:11:35;;;;;;;;;;;;;;;6.40;100.00;99196.69;5044968;28;19917;-78
2024/03/09 04:14:01;;;;;;;;;;;;;;;6.38;100.00;99201.81;5031788;28;20008;-78
2024/03/09 04:16:26;;;;;;;;;;;;;;;6.34;100.00;99195.53;5031329;28;19921;-78
2024/03/09 04:18:52;;;;;;;;;;;;;;;6.40;100.00;99204.13;5030479;28;20413;-79
2024/03/09 04:21:18;;;;;;;;;;;;;;;6.51;100.00;99205.66;5031013;28;19917;-79
2024/03/09 04:23:43;;;;;;;;;;;;;;;6.54;100.00;99209.59;5030327;28;19928;-79
2024/03/09 04:26:11;;;;;;;;;;;;;;;6.56;100.00;99211.97;5031553;28;19917;-79
2024/03/09 04:28:40;;;;;;;;;;;;;;;6.54;100.00;99204.91;5029920;28;19917;-80
2024/03/09 04:31:06;;;;;;;;;;;;;;;6.35;100.00;99208.06;5031416;28;19925;-79
2024/03/09 04:33:33;;;;;;;;;;;;;;;6.28;100.00;99199.84;5030629;28;19917;-78
2024/03/09 04:35:58;;;;;;;;;;;;;;;6.21;100.00;99199.09;5043634;28;19941;-79
2024/03/09 04:38:25;;;;;;;;;;;;;;;6.18;100.00;99200.66;5031769;28;19920;-79
2024/03/09 04:40:51;;;;;;;;;;;;;;;6.16;100.00;99199.47;5036930;28;19921;-79
2024/03/09 04:43:16;;;;;;;;;;;;;;;6.28;100.00;99199.06;5016830;28;19917;-78
2024/03/09 04:45:41;;;;;;;;;;;;;;;6.40;100.00;99198.66;5030273;28;19917;-79
2024/03/09 04:48:09;;;;;;;;;;;;;;;6.45;100.00;99195.53;5013879;28;19917;-79
2024/03/09 04:50:34;;;;;;;;;;;;;;;6.54;100.00;99198.63;5028204;28;19951;-79
2024/03/09 04:52:59;;;;;;;;;;;;;;;6.62;100.00;99197.44;5038118;28;20327;-80
2024/03/09 04:55:27;;;;;;;;;;;;;;;6.67;100.00;99201.72;5013598;28;20008;-79
2024/03/09 04:57:53;;;;;;;;;;;;;;;6.72;100.00;99207.56;5033077;28;19928;-78
2024/03/09 05:00:18;;;;;;;;;;;;;;;6.78;100.00;99200.50;5033733;28;19920;-79
2024/03/09 05:02:44;;;;;;;;;;;;;;;6.86;100.00;99201.25;5033759;28;20007;-78
2024/03/09 05:05:10;;;;;;;;;;;;;;;6.83;100.00;99193.78;5048401;28;19920;-78
2024/03/09 05:07:35;;;;;;;;;;;;;;;6.89;100.00;99203.19;5017272;28;19922;-80
2024/03/09 05:10:01;;;;;;;;;;;;;;;6.83;100.00;99207.53;5034510;28;19940;-78
2024/03/09 05:12:26;;;;;;;;;;;;;;;6.82;100.00;99222.44;5017772;28;19920;-80
2024/03/09 05:14:51;;;;;;;;;;;;;;;6.74;100.00;99216.22;5035407;28;19913;-80
2024/03/09 05:17:16;;;;;;;;;;;;;;;6.69;100.00;99211.09;5033914;28;19943;-79
2024/03/09 05:19:42;;;;;;;;;;;;;;;6.76;100.00;99216.56;5038983;28;19921;-79
2024/03/09 05:22:07;;;;;;;;;;;;;;;6.79;100.00;99217.75;5019693;28;20016;-78
2024/03/09 05:24:33;;;;;;;;;;;;;;;6.78;100.00;99219.72;5034498;28;19917;-78
2024/03/09 05:26:58;;;;;;;;;;;;;;;6.83;100.00;99221.25;5033466;28;19917;-78
2024/03/09 05:29:23;;;;;;;;;;;;;;;6.84;100.00;99218.13;5034632;28;19921;-78
2024/03/09 05:31:48;;;;;;;;;;;;;;;6.99;100.00;99213.38;5034080;28;19913;-79
2024/03/09 05:34:15;;;;;;;;;;;;;;;6.82;100.00;99217.72;5016836;28;20024;-79
2024/03/09 05:36:40;;;;;;;;;;;;;;;6.94;100.00;99222.78;5033318;28;20306;-79
2024/03/09 05:39:05;;;;;;;;;;;;;;;6.99;99.96;99224.34;5033047;28;19913;-79
2024/03/09 05:41:32;;;;;;;;;;;;;;;6.93;99.84;99225.94;5017032;28;20398;-79
2024/03/09 05:43:57;;;;;;;;;;;;;;;6.87;99.90;99220.06;5033174;28;19921;-79
2024/03/09 05:46:23;;;;;;;;;;;;;;;6.85;100.00;99230.69;5033216;28;19924;-79
2024/03/09 05:48:50;;;;;;;;;;;;;;;6.87;100.00;99227.53;5033058;28;19917;-79
2024/03/09 05:51:15;;;;;;;;;;;;;;;6.96;100.00;99219.63;5045864;28;19939;-78
2024/03/09 05:53:41;;;;;;;;;;;;;;;6.99;99.86;99237.31;5022904;28;20378;-78
2024/03/09 05:56:06;;;;;;;;;;;;;;;6.94;99.39;99224.75;5023811;28;19920;-78
2024/03/09 05:58:32;;;;;;;;;;;;;;;7.00;99.52;99225.09;5032080;28;19917;-78
2024/03/09 06:00:57;;;;;;;;;;;;;;;7.05;99.39;99224.72;5016349;28;19924;-80
2024/03/09 06:03:22;;;;;;;;;;;;;;;7.04;99.51;99225.91;5032627;28;19913;-77
2024/03/09 06:05:48;;;;;;;;;;;;;;;6.90;99.67;99237.72;5028322;28;19928;-78
2024/03/09 06:08:13;;;;;;;;;;;;;;;6.93;100.00;99237.69;5033998;28;19932;-79
2024/03/09 06:10:39;;;;;;;;;;;;;;;6.88;100.00;99234.56;5016017;28;19921;-79
2024/03/09 06:13:05;;;;;;;;;;;;;;;6.89;100.00;99236.16;5032400;28;19975;-79
2024/03/09 06:15:30;;;;;;;;;;;;;;;6.88;100.00;99238.09;5033858;28;20465;-80
2024/03/09 06:17:58;;;;;;;;;;;;;;;6.82;100.00;99247.94;5034325;28;19917;-80
2024/03/09 06:20:26;;;;;;;;;;;;;;;6.82;100.00;99253.44;5035635;28;19920;-82
2024/03/09 06:22:53;;;;;;;;;;;;;;;6.91;100.00;99251.06;5011671;28;20027;-82
2024/03/09 06:25:22;;;;;;;;;;;;;;;6.87;100.00;99253.00;5034480;28;19928;-80
2024/03/09 06:27:54;;;;;;;;;;;;;;;7.04;100.00;99247.88;5014765;28;19925;-80
2024/03/09 06:30:20;;;;;;;;;;;;;;;7.22;100.00;99248.56;5008619;28;19952;-79
2024/03/09 06:32:46;;;;;;;;;;;;;;;7.09;99.82;99258.44;5039126;28;20440;-79
2024/03/09 06:35:13;;;;;;;;;;;;;;;7.01;99.85;99259.66;5036406;28;19924;-81
2024/03/09 06:37:39;;;;;;;;;;;;;;;6.82;100.00;99258.94;5026831;28;20267;-81
2024/03/09 06:40:04;;;;;;;;;;;;;;;6.73;100.00;99255.81;5023990;28;19937;-80
2024/03/09 06:42:30;;;;;;;;;;;;;;;6.84;100.00;99261.28;5001815;28;19917;-80
2024/03/09 06:44:55;;;;;;;;;;;;;;;6.91;100.00;99259.31;5003628;28;19917;-82
2024/03/09 06:47:21;;;;;;;;;;;;;;;7.12;100.00;99263.91;5018503;28;19919;-84
2024/03/09 06:49:47;;;;;;;;;;;;;;;7.15;100.00;99260.38;5035089;28;20375;-81
2024/03/09 06:52:12;;;;;;;;;;;;;;;7.18;99.83;99269.78;5000053;28;19956;-80
2024/03/09 06:54:38;;;;;;;;;;;;;;;7.23;100.00;99278.38;5009912;28;19924;-84
2024/03/09 06:57:03;;;;;;;;;;;;;;;7.29;99.79;99268.53;5032157;28;19928;-80
2024/03/09 06:59:28;;;;;;;;;;;;;;;7.34;99.92;99275.59;5037939;28;19925;-84
2024/03/09 07:01:59;;;;;;;;;;;;;;;7.29;98.00;99278.78;5033081;28;19917;-83
2024/03/09 07:04:25;;;;;;;;;;;;;;;7.19;98.55;99274.88;5033372;28;19925;-82
2024/03/09 07:06:51;;;;;;;;;;;;;;;7.41;97.86;99272.03;5045275;28;21110;-81
2024/03/09 07:09:17;;;;;;;;;;;;;;;7.40;97.88;99279.50;5033138;28;19932;-77
2024/03/09 07:11:42;;;;;;;;;;;;;;;7.29;97.81;99287.00;5032027;28;20039;-79
2024/03/09 07:14:07;;;;;;;;;;;;;;;7.40;98.80;99278.72;5031922;28;19913;-81
2024/03/09 07:16:33;;;;;;;;;;;;;;;7.59;97.25;99279.00;5035694;28;19925;-80
2024/03/09 07:18:58;;;;;;;;;;;;;;;7.49;95.79;99271.56;5022588;28;20026;-78
2024/03/09 07:21:23;;;;;;;;;;;;;;;7.60;96.09;99277.00;5031765;28;20413;-78
2024/03/09 07:23:49;;;;;;;;;;;;;;;7.55;95.54;99278.22;5044855;28;19920;-80
2024/03/09 07:26:15;;;;;;;;;;;;;;;7.67;96.25;99274.22;5014035;28;20334;-79
2024/03/09 07:28:40;;;;;;;;;;;;;;;7.83;94.88;99288.28;5027840;28;19992;-80
2024/03/09 07:31:05;;;;;;;;;;;;;;;7.76;95.63;99289.09;5009335;28;19917;-81
2024/03/09 07:33:32;;;;;;;;;;;;;;;7.91;95.60;99287.00;5031912;28;19924;-79
2024/03/09 07:35:58;;;;;;;;;;;;;;;8.23;95.42;99275.75;5031193;28;19921;-81
2024/03/09 07:38:24;;;;;;;;;;;;;;;8.44;93.22;99277.56;5004999;28;19917;-82
2024/03/09 07:40:50;;;;;;;;;;;;;;;8.47;92.77;99269.28;5011894;28;20031;-81
2024/03/09 07:43:18;;;;;;;;;;;;;;;8.58;90.31;99272.72;5011674;28;19917;-81
2024/03/09 07:45:43;;;;;;;;;;;;;;;8.64;88.50;99264.78;5037597;28;19967;-81
2024/03/09 07:48:11;;;;;;;;;;;;;;;8.94;86.25;99269.56;5032572;28;19917;-80
2024/03/09 07:50:36;;;;;;;;;;;;;;;8.76;85.31;99278.03;5030838;28;19948;-80
2024/03/09 07:53:02;;;;;;;;;;;;;;;8.83;85.40;99275.19;5014992;28;20429;-80
2024/03/09 07:55:27;;;;;;;;;;;;;;;8.82;85.98;99273.63;5014489;28;20403;-80
2024/03/09 07:57:59;;;;;;;;;;;;;;;8.75;85.67;99275.66;5032247;28;19921;-80
2024/03/09 08:00:28;;;;;;;;;;;;;;;8.70;85.00;99274.16;5014272;28;20331;-79
2024/03/09 08:02:55;;;;;;;;;;;;;;;8.85;84.96;99280.31;5041973;28;19913;-80
2024/03/09 08:05:22;;;;;;;;;;;;;;;9.00;84.90;99276.19;5011260;28;19917;-80
2024/03/09 08:07:47;;;;;;;;;;;;;;;9.13;83.35;99277.22;5006615;28;20426;-80
2024/03/09 08:10:13;;;;;;;;;;;;;;;9.51;81.18;99272.38;5029564;28;19913;-80
2024/03/09 08:12:39;;;;;;;;;;;;;;;9.72;80.63;99276.81;5030899;28;19956;-82
2024/03/09 08:15:04;;;;;;;;;;;;;;;9.87;78.00;99277.38;5044371;28;19956;-80
2024/03/09 08:17:31;;;;;;;;;;;;;;;10.07;75.26;99289.28;5012735;28;19916;-80
2024/03/09 08:19:59;;;;;;;;;;;;;;;10.17;75.48;99277.34;5028261;28;19963;-79
2024/03/09 08:22:24;;;;;;;;;;;;;;;10.11;76.51;99276.22;5011726;28;19921;-80
2024/03/09 08:24:51;;;;;;;;;;;;;;;10.10;75.51;99275.44;5029398;28;20004;-79
2024/03/09 08:27:17;;;;;;;;;;;;;;;10.33;74.70;99279.44;5028301;28;19967;-81
2024/03/09 08:29:44;;;;;;;;;;;;;;;9.67;76.84;99275.31;5028509;28;20004;-82
2024/03/09 08:32:09;;;;;;;;;;;;;;;9.69;79.05;99275.69;5028472;28;19921;-81
2024/03/09 08:34:34;;;;;;;;;;;;;;;9.80;78.69;99281.03;5013616;28;20435;-81
2024/03/09 08:37:03;;;;;;;;;;;;;;;10.08;75.78;99272.31;5031405;28;20459;-80
2024/03/09 08:39:28;;;;;;;;;;;;;;;9.79;75.85;99273.94;5031487;28;19971;-80
2024/03/09 08:41:55;;;;;;;;;;;;;;;9.25;77.92;99281.41;5030040;28;20310;-82
2024/03/09 08:44:20;;;;;;;;;;;;;;;9.10;79.39;99280.03;5030135;28;19918;-80
2024/03/09 08:46:45;;;;;;;;;;;;;;;8.90;80.49;99266.84;5013521;28;19928;-82
2024/03/09 08:49:13;;;;;;;;;;;;;;;8.73;81.70;99275.31;5039858;28;19924;-82
2024/03/09 08:51:38;;;;;;;;;;;;;;;8.77;82.23;99270.53;5016492;28;19921;-82
2024/03/09 08:54:04;;;;;;;;;;;;;;;8.75;83.55;99272.91;5031251;28;19925;-82
2024/03/09 08:56:29;;;;;;;;;;;;;;;8.81;83.17;99274.03;5030879;28;20452;-80
2024/03/09 08:58:54;;;;;;;;;;;;;;;8.91;83.02;99278.66;5029542;28;20453;-80
2024/03/09 09:01:20;;;;;;;;;;;;;;;9.07;81.88;99275.31;5030577;28;19922;-80
2024/03/09 09:03:45;;;;;;;;;;;;;;;9.34;82.57;99281.69;5029656;28;19913;-82
2024/03/09 09:06:10;;;;;;;;;;;;;;;9.55;80.38;99284.16;5029762;28;20379;-81
2024/03/09 09:08:37;;;;;;;;;;;;;;;9.61;80.51;99285.25;5030865;28;19925;-81
2024/03/09 09:11:02;;;;;;;;;;;;;;;9.74;78.57;99288.22;5042814;28;19913;-80
2024/03/09 09:13:28;;;;;;;;;;;;;;;9.79;77.08;99271.97;5013219;28;20165;-81
2024/03/09 09:15:53;;;;;;;;;;;;;;;9.65;75.59;99274.94;5013356;28;19944;-80
2024/03/09 09:18:18;;;;;;;;;;;;;;;9.53;76.96;99274.72;5029942;28;19933;-80
2024/03/09 09:20:48;;;;;;;;;;;;;;;9.52;76.78;99273.97;5029718;28;20015;-80
2024/03/09 09:23:13;;;;;;;;;;;;;;;9.44;77.79;99263.44;5037974;28;20004;-79
2024/03/09 09:25:38;;;;;;;;;;;;;;;9.58;77.35;99266.00;5036678;28;19959;-80
2024/03/09 09:28:05;;;;;;;;;;;;;;;9.64;76.82;99272.59;5030337;28;20009;-81
2024/03/09 09:30:31;;;;;;;;;;;;;;;9.89;75.26;99270.25;5030535;28;20000;-80
2024/03/09 09:32:57;;;;;;;;;;;;;;;10.11;74.30;99276.22;5026217;28;20378;-81
2024/03/09 09:35:25;;;;;;;;;;;;;;;10.38;73.68;99276.19;5026205;28;19982;-79
2024/03/09 09:37:52;;;;;;;;;;;;;;;10.44;71.57;99283.56;5030232;28;19917;-81
2024/03/09 09:40:18;;;;;;;;;;;;;;;10.78;71.46;99277.06;5010316;28;19968;-79
2024/03/09 09:42:44;;;;;;;;;;;;;;;11.02;69.56;99282.09;5013598;28;19959;-79
2024/03/09 09:45:17;;;;;;;;;;;;;;;11.02;68.09;99268.28;5032640;28;19917;-80
2024/03/09 09:47:44;;;;;;;;;;;;;;;10.96;70.05;99274.72;5004103;28;19937;-79
2024/03/09 09:50:09;;;;;;;;;;;;;;;10.35;70.21;99280.59;5015169;28;20387;-78
2024/03/09 09:52:36;;;;;;;;;;;;;;;10.31;73.38;99274.31;5016748;28;20015;-79
2024/03/09 09:55:02;;;;;;;;;;;;;;;10.83;71.57;99273.78;5030946;28;19917;-78
2024/03/09 09:57:28;;;;;;;;;;;;;;;10.78;68.39;99271.53;5029222;28;19924;-80
2024/03/09 09:59:54;;;;;;;;;;;;;;;10.62;70.05;99277.72;5017567;28;19924;-79
2024/03/09 10:02:22;;;;;;;;;;;;;;;10.78;68.39;99275.06;5014873;28;19921;-78
2024/03/09 10:04:48;;;;;;;;;;;;;;;11.20;67.54;99273.44;5031357;28;19921;-79
2024/03/09 10:07:14;;;;;;;;;;;;;;;11.33;69.08;99284.66;5033427;28;19925;-78
2024/03/09 10:09:39;;;;;;;;;;;;;;;11.68;69.12;99281.09;5029067;28;20321;-78
2024/03/09 10:12:17;;;;;;;;;;;;;;;11.67;68.66;99281.53;5008426;28;19928;-78
2024/03/09 10:14:42;;;;;;;;;;;;;;;11.87;65.63;99276.75;5012322;28;20398;-78
2024/03/09 10:17:09;;;;;;;;;;;;;;;12.13;66.14;99284.03;5043346;28;19917;-79
2024/03/09 10:19:35;;;;;;;;;;;;;;;12.02;66.66;99285.50;5016315;28;19924;-79
2024/03/09 10:22:00;;;;;;;;;;;;;;;12.04;66.16;99280.31;5035125;28;19920;-78
2024/03/09 10:24:26;;;;;;;;;;;;;;;12.01;64.93;99281.94;5014345;28;19964;-79
2024/03/09 10:26:51;;;;;;;;;;;;;;;11.96;65.16;99273.38;5034589;28;20394;-79
2024/03/09 10:29:19;;;;;;;;;;;;;;;11.78;67.13;99284.88;5018853;28;19928;-78
2024/03/09 10:31:45;;;;;;;;;;;;;;;11.89;66.30;99271.53;5022012;28;19921;-78
2024/03/09 10:34:10;;;;;;;;;;;;;;;11.81;65.92;99278.47;5021808;28;19921;-78
2024/03/09 10:36:36;;;;;;;;;;;;;;;11.59;64.80;99271.81;5007669;28;19920;-79
2024/03/09 10:39:01;;;;;;;;;;;;;;;11.16;66.67;99269.97;5043434;28;20077;-78
2024/03/09 10:41:27;;;;;;;;;;;;;;;11.01;66.58;99271.47;5034643;28;20407;-79
2024/03/09 10:43:54;;;;;;;;;;;;;;;11.56;67.05;99267.94;5031907;28;20279;-81
2024/03/09 10:46:29;;;;;;;;;;;;;;;11.70;66.11;99262.06;5031319;28;19921;-79
2024/03/09 10:48:56;;;;;;;;;;;;;;;11.08;67.78;99263.03;5031755;28;19917;-79
2024/03/09 10:51:37;;;;;;;;;;;;;;;10.96;72.22;99264.44;5019264;28;20376;-80
2024/03/09 10:54:13;;;;;;;;;;;;;;;11.33;71.09;99256.97;5031245;28;20063;-80
2024/03/09 10:56:39;;;;;;;;;;;;;;;11.49;67.36;99261.78;5031912;28;19924;-78
2024/03/09 10:59:09;;;;;;;;;;;;;;;11.67;66.72;99246.34;5036270;28;19928;-79
2024/03/09 11:01:35;;;;;;;;;;;;;;;11.72;67.01;99247.78;5020958;28;19917;-78
2024/03/09 11:04:00;;;;;;;;;;;;;;;11.60;65.82;99254.00;5029054;28;19999;-80
2024/03/09 11:06:27;;;;;;;;;;;;;;;11.52;63.71;99247.06;5031414;28;19949;-78
2024/03/09 11:08:54;;;;;;;;;;;;;;;11.70;63.85;99237.16;5011745;28;19926;-79
2024/03/09 11:11:21;;;;;;;;;;;;;;;11.49;63.34;99242.41;4993622;28;19925;-78
2024/03/09 11:13:55;;;;;;;;;;;;;;;11.62;63.85;99240.53;4993542;28;19953;-80
2024/03/09 11:16:21;;;;;;;;;;;;;;;11.17;66.81;99235.56;5008504;28;20281;-79
2024/03/09 11:18:50;;;;;;;;;;;;;;;10.76;67.32;99235.22;4979053;28;20017;-80
2024/03/09 11:21:26;;;;;;;;;;;;;;;10.42;72.70;99225.22;4991191;28;19918;-79
2024/03/09 11:23:52;;;;;;;;;;;;;;;10.59;71.20;99228.84;4991809;28;19918;-80
2024/03/09 11:26:22;;;;;;;;;;;;;;;11.03;70.11;99228.34;4980230;28;19964;-79
2024/03/09 11:28:57;;;;;;;;;;;;;;;10.90;69.95;99227.44;4991007;28;19917;-80
2024/03/09 11:31:28;;;;;;;;;;;;;;;10.84;71.95;99222.84;4980788;28;20388;-79
2024/03/09 11:34:06;;;;;;;;;;;;;;;10.97;71.47;99221.00;4991243;28;19968;-80
2024/03/09 11:36:50;;;;;;;;;;;;;;;11.14;71.57;99219.84;5018522;28;20013;-78
2024/03/09 11:39:16;;;;;;;;;;;;;;;11.07;72.01;99219.22;4993985;28;19980;-78
2024/03/09 11:41:46;;;;;;;;;;;;;;;11.11;72.31;99228.97;5007952;28;19992;-79
2024/03/09 11:44:13;;;;;;;;;;;;;;;11.43;69.33;99220.00;5013475;28;19917;-79
2024/03/09 11:46:38;;;;;;;;;;;;;;;11.39;69.03;99219.31;5011183;28;19992;-79
2024/03/09 11:49:04;;;;;;;;;;;;;;;11.42;69.30;99221.97;4988646;28;19977;-79
2024/03/09 11:51:33;;;;;;;;;;;;;;;11.40;68.71;99226.38;5001548;28;19961;-80
2024/03/09 11:54:02;;;;;;;;;;;;;;;11.20;68.88;99223.66;4994817;28;19973;-80
2024/03/09 11:56:28;;;;;;;;;;;;;;;11.29;69.65;99210.03;5007591;28;19918;-80
2024/03/09 11:58:54;;;;;;;;;;;;;;;11.26;70.55;99210.09;5007704;28;19953;-78
2024/03/09 12:01:19;;;;;;;;;;;;;;;11.36;67.95;99209.09;4992878;28;19968;-79
2024/03/09 12:03:49;;;;;;;;;;;;;;;11.34;68.04;99205.97;5007948;28;19983;-79
2024/03/09 12:06:14;;;;;;;;;;;;;;;11.29;71.71;99204.50;5007033;28;19957;-80
2024/03/09 12:08:40;;;;;;;;;;;;;;;11.33;72.54;99207.94;4991409;28;19997;-80
2024/03/09 12:11:05;;;;;;;;;;;;;;;11.37;71.38;99191.28;5007232;28;19973;-80
2024/03/09 12:13:31;;;;;;;;;;;;;;;11.39;70.19;99203.47;4983472;28;19976;-80
2024/03/09 12:15:58;;;;;;;;;;;;;;;11.42;69.01;99197.09;4990808;28;19956;-80
2024/03/09 12:18:23;;;;;;;;;;;;;;;11.39;68.19;99192.38;4991283;28;19925;-80
2024/03/09 12:20:49;;;;;;;;;;;;;;;11.32;69.21;99195.34;5006817;28;19922;-78
2024/03/09 12:23:17;;;;;;;;;;;;;;;11.12;67.61;99189.06;4992111;28;19990;-79
2024/03/09 12:25:42;;;;;;;;;;;;;;;11.29;68.79;99182.34;4990971;28;20311;-78
2024/03/09 12:28:09;;;;;;;;;;;;;;;11.24;69.87;99184.84;4992170;28;19917;-78
2024/03/09 12:30:35;;;;;;;;;;;;;;;11.37;69.96;99182.97;5020537;28;20359;-80
2024/03/09 12:33:01;;;;;;;;;;;;;;;11.47;69.46;99183.94;4992396;28;20404;-79
2024/03/09 12:35:26;;;;;;;;;;;;;;;11.34;70.14;99179.06;5006867;28;19952;-79
2024/03/09 12:37:51;;;;;;;;;;;;;;;11.45;69.69;99178.06;5006436;28;19922;-79
2024/03/09 12:40:19;;;;;;;;;;;;;;;11.40;69.72;99171.81;4989043;28;19968;-79
2024/03/09 12:42:47;;;;;;;;;;;;;;;11.29;69.47;99171.28;4991361;28;19985;-80
2024/03/09 12:45:22;;;;;;;;;;;;;;;11.12;68.73;99171.69;5006838;28;19928;-79